createdAt,value
2018-01-30T00:01:46.340Z,5.55
2018-01-30T00:04:13.861Z,5.54
2018-01-30T00:06:41.377Z,5.53
2018-01-30T00:09:08.925Z,5.47
2018-01-30T00:11:36.453Z,5.43
2018-01-30T00:14:04.039Z,5.42
2018-01-30T00:16:31.678Z,5.44
2018-01-30T00:18:59.213Z,5.37
2018-01-30T00:21:26.768Z,5.37
2018-01-30T00:23:54.352Z,5.35
2018-01-30T00:26:21.877Z,5.34
2018-01-30T00:28:49.388Z,5.30
2018-01-30T00:31:16.920Z,5.30
2018-01-30T00:33:44.491Z,5.29
2018-01-30T00:36:12.015Z,5.31
2018-01-30T00:38:39.542Z,5.34
2018-01-30T00:41:07.192Z,5.39
2018-01-30T00:43:34.712Z,5.38
2018-01-30T00:46:02.237Z,5.32
2018-01-30T00:48:29.746Z,5.30
2018-01-30T00:50:57.264Z,5.33
2018-01-30T00:53:24.774Z,5.33
2018-01-30T00:55:52.293Z,5.27
2018-01-30T00:58:19.839Z,5.28
2018-01-30T01:00:47.337Z,5.26
2018-01-30T01:03:14.852Z,5.34
2018-01-30T01:05:42.408Z,5.36
2018-01-30T01:08:09.914Z,5.41
2018-01-30T01:10:37.446Z,5.43
2018-01-30T01:13:05.129Z,5.45
2018-01-30T01:15:32.654Z,5.46
2018-01-30T01:18:00.253Z,5.46
2018-01-30T01:20:27.757Z,5.46
2018-01-30T01:22:55.273Z,5.44
2018-01-30T01:25:22.767Z,5.43
2018-01-30T01:27:50.285Z,5.37
2018-01-30T01:30:17.825Z,5.37
2018-01-30T01:32:45.406Z,5.31
2018-01-30T01:35:13.362Z,5.30
2018-01-30T01:37:40.908Z,5.26
2018-01-30T01:40:08.417Z,5.29
2018-01-30T01:42:35.963Z,5.32
2018-01-30T01:45:03.505Z,5.33
2018-01-30T01:47:31.009Z,5.31
2018-01-30T01:49:58.501Z,5.26
2018-01-30T01:52:26.025Z,5.20
2018-01-30T01:54:53.540Z,5.15
2018-01-30T01:57:21.059Z,5.10
2018-01-30T01:59:48.783Z,5.12
2018-01-30T02:02:16.285Z,5.10
2018-01-30T02:04:43.812Z,5.11
2018-01-30T02:07:11.342Z,5.14
2018-01-30T02:09:38.865Z,5.11
2018-01-30T02:12:06.492Z,5.14
2018-01-30T02:14:33.988Z,5.16
2018-01-30T02:17:01.513Z,5.17
2018-01-30T02:19:29.234Z,5.13
2018-01-30T02:21:56.728Z,5.12
2018-01-30T02:24:24.220Z,5.09
2018-01-30T02:26:51.760Z,5.09
2018-01-30T02:29:19.260Z,5.11
2018-01-30T02:31:46.776Z,5.10
2018-01-30T02:34:14.324Z,5.09
2018-01-30T02:36:41.859Z,5.06
2018-01-30T02:39:09.361Z,5.05
2018-01-30T02:41:36.902Z,5.07
2018-01-30T02:44:04.413Z,5.05
2018-01-30T02:46:31.912Z,4.97
2018-01-30T02:48:59.437Z,4.88
2018-01-30T02:51:26.945Z,4.78
2018-01-30T02:53:54.461Z,4.73
2018-01-30T02:56:22.012Z,4.71
2018-01-30T02:58:49.564Z,4.77
2018-01-30T03:01:17.060Z,4.81
2018-01-30T03:03:44.568Z,4.84
2018-01-30T03:06:12.093Z,4.84
2018-01-30T03:08:39.597Z,4.80
2018-01-30T03:11:07.293Z,4.80
2018-01-30T03:13:34.791Z,4.88
2018-01-30T03:16:02.312Z,4.92
2018-01-30T03:18:29.833Z,4.97
2018-01-30T03:20:57.330Z,5.01
2018-01-30T03:23:24.888Z,5.02
2018-01-30T03:25:52.421Z,5.09
2018-01-30T03:28:19.929Z,5.09
2018-01-30T03:30:47.553Z,5.07
2018-01-30T03:33:15.073Z,5.07
2018-01-30T03:35:42.567Z,5.07
2018-01-30T03:38:10.061Z,5.06
2018-01-30T03:40:37.784Z,5.08
2018-01-30T03:43:05.278Z,5.11
2018-01-30T03:45:32.813Z,5.11
2018-01-30T03:48:00.324Z,5.14
2018-01-30T03:50:27.928Z,5.04
2018-01-30T03:52:55.456Z,5.00
2018-01-30T03:55:22.981Z,5.01
2018-01-30T03:57:50.482Z,5.08
2018-01-30T04:00:18.062Z,5.13
2018-01-30T04:02:45.579Z,5.18
2018-01-30T04:05:13.076Z,5.22
2018-01-30T04:07:40.689Z,5.25
2018-01-30T04:10:08.277Z,5.23
2018-01-30T04:12:35.805Z,5.19
2018-01-30T04:15:03.429Z,5.12
2018-01-30T04:17:31.171Z,5.09
2018-01-30T04:19:58.664Z,5.05
2018-01-30T04:22:26.203Z,5.00
2018-01-30T04:24:53.736Z,4.91
2018-01-30T04:27:21.233Z,4.85
2018-01-30T04:29:48.776Z,4.79
2018-01-30T04:32:16.292Z,4.77
2018-01-30T04:34:43.880Z,4.75
2018-01-30T04:37:11.436Z,4.75
2018-01-30T04:39:38.941Z,4.77
2018-01-30T04:42:06.488Z,4.80
2018-01-30T04:44:34.128Z,4.72
2018-01-30T04:47:01.693Z,4.73
2018-01-30T04:49:29.189Z,4.75
2018-01-30T04:51:56.714Z,4.73
2018-01-30T04:54:24.225Z,4.80
2018-01-30T04:56:51.758Z,4.81
2018-01-30T04:59:19.253Z,4.81
2018-01-30T05:01:46.772Z,4.81
2018-01-30T05:04:14.405Z,4.84
2018-01-30T05:06:41.906Z,4.87
2018-01-30T05:09:09.399Z,4.88
2018-01-30T05:11:36.945Z,4.85
2018-01-30T05:14:04.468Z,4.83
2018-01-30T05:16:32.068Z,4.79
2018-01-30T05:18:59.611Z,4.67
2018-01-30T05:21:27.148Z,4.56
2018-01-30T05:23:54.763Z,4.47
2018-01-30T05:26:22.280Z,4.44
2018-01-30T05:28:49.824Z,4.40
2018-01-30T05:31:17.350Z,4.40
2018-01-30T05:33:44.908Z,4.43
2018-01-30T05:36:12.473Z,4.49
2018-01-30T05:38:39.989Z,4.58
2018-01-30T05:41:08.489Z,4.65
2018-01-30T05:43:36.004Z,4.73
2018-01-30T05:46:03.617Z,4.77
2018-01-30T05:48:31.153Z,4.73
2018-01-30T05:50:58.828Z,4.77
2018-01-30T05:53:26.325Z,4.77
2018-01-30T05:55:53.848Z,4.77
2018-01-30T05:58:21.412Z,4.75
2018-01-30T06:00:48.921Z,4.77
2018-01-30T06:03:16.421Z,4.74
2018-01-30T06:05:43.937Z,4.69
2018-01-30T06:08:11.438Z,4.71
2018-01-30T06:10:38.999Z,4.66
2018-01-30T06:13:06.507Z,4.68
2018-01-30T06:15:33.996Z,4.63
2018-01-30T06:18:01.545Z,4.59
2018-01-30T06:20:29.094Z,4.64
2018-01-30T06:22:56.590Z,4.67
2018-01-30T06:25:24.080Z,4.73
2018-01-30T06:27:51.669Z,4.73
2018-01-30T06:30:19.265Z,4.77
2018-01-30T06:32:46.771Z,4.83
2018-01-30T06:35:14.408Z,4.82
2018-01-30T06:37:41.965Z,4.81
2018-01-30T06:40:09.464Z,4.89
2018-01-30T06:42:37.000Z,4.93
2018-01-30T06:45:04.534Z,4.96
2018-01-30T06:47:32.055Z,4.96
2018-01-30T06:49:59.577Z,4.98
2018-01-30T06:52:27.101Z,4.97
2018-01-30T06:54:54.629Z,5.00
2018-01-30T06:57:22.149Z,5.07
2018-01-30T06:59:49.645Z,5.06
2018-01-30T07:02:17.169Z,5.05
2018-01-30T07:04:44.702Z,5.06
2018-01-30T07:07:12.227Z,5.09
2018-01-30T07:09:39.816Z,5.07
2018-01-30T07:12:07.337Z,5.13
2018-01-30T07:14:34.864Z,5.12
2018-01-30T07:17:02.493Z,5.15
2018-01-30T07:19:29.997Z,5.13
2018-01-30T07:21:57.523Z,5.11
2018-01-30T07:24:25.289Z,5.13
2018-01-30T07:26:52.789Z,5.20
2018-01-30T07:29:20.393Z,5.19
2018-01-30T07:31:47.948Z,5.24
2018-01-30T07:34:15.508Z,5.23
2018-01-30T07:36:43.033Z,5.22
2018-01-30T07:39:10.650Z,5.21
2018-01-30T07:41:38.209Z,5.28
2018-01-30T07:44:05.747Z,5.26
2018-01-30T07:46:33.319Z,5.23
2018-01-30T07:49:00.838Z,5.26
2018-01-30T07:51:28.424Z,5.26
2018-01-30T07:53:55.950Z,5.26
2018-01-30T07:56:23.460Z,5.28
2018-01-30T07:58:51.016Z,5.29
2018-01-30T08:01:18.545Z,5.32
2018-01-30T08:03:46.049Z,5.32
2018-01-30T08:06:13.792Z,5.31
2018-01-30T08:08:41.309Z,5.31
2018-01-30T08:11:08.821Z,5.33
2018-01-30T08:13:36.373Z,5.34
2018-01-30T08:16:03.905Z,5.38
2018-01-30T08:18:31.429Z,5.36
2018-01-30T08:20:58.962Z,5.32
2018-01-30T08:23:26.496Z,5.31
2018-01-30T08:25:54.005Z,5.34
2018-01-30T08:28:21.609Z,5.41
2018-01-30T08:30:49.128Z,5.38
2018-01-30T08:33:16.660Z,5.32
2018-01-30T08:35:44.183Z,5.33
2018-01-30T08:38:11.700Z,5.38
2018-01-30T08:40:39.239Z,5.40
2018-01-30T08:43:06.764Z,5.37
2018-01-30T08:45:34.304Z,5.39
2018-01-30T08:48:01.853Z,5.36
2018-01-30T08:50:29.390Z,5.36
2018-01-30T08:52:56.918Z,5.36
2018-01-30T08:55:24.470Z,5.44
2018-01-30T08:57:51.996Z,5.52
2018-01-30T09:00:19.594Z,5.66
2018-01-30T09:02:47.139Z,5.69
2018-01-30T09:05:14.665Z,5.64
2018-01-30T09:07:42.204Z,5.55
2018-01-30T09:10:09.749Z,5.63
2018-01-30T09:12:37.248Z,5.68
2018-01-30T09:15:04.772Z,5.69
2018-01-30T09:17:32.391Z,5.67
2018-01-30T09:19:59.889Z,5.66
2018-01-30T09:22:27.478Z,5.75
2018-01-30T09:24:55.033Z,5.81
2018-01-30T09:27:22.538Z,5.76
2018-01-30T09:29:50.038Z,5.80
2018-01-30T09:32:17.550Z,5.87
2018-01-30T09:34:45.128Z,5.91
2018-01-30T09:37:12.703Z,5.96
2018-01-30T09:39:40.199Z,5.87
2018-01-30T09:42:07.716Z,5.79
2018-01-30T09:44:35.314Z,5.71
2018-01-30T09:47:02.813Z,5.71
2018-01-30T09:49:31.236Z,5.75
2018-01-30T09:51:58.841Z,5.85
2018-01-30T09:54:26.332Z,5.80
2018-01-30T09:56:53.881Z,5.81
2018-01-30T09:59:21.433Z,5.82
2018-01-30T10:01:48.933Z,5.80
2018-01-30T10:04:16.495Z,5.76
2018-01-30T10:06:44.025Z,5.83
2018-01-30T10:09:11.881Z,5.89
2018-01-30T10:11:39.417Z,5.99
2018-01-30T10:14:06.969Z,6.05
2018-01-30T10:16:34.772Z,6.12
2018-01-30T10:19:02.297Z,6.06
2018-01-30T10:21:29.853Z,6.05
2018-01-30T10:23:57.381Z,6.08
2018-01-30T10:26:24.901Z,6.01
2018-01-30T10:28:52.433Z,5.88
2018-01-30T10:31:19.954Z,5.85
2018-01-30T10:33:47.470Z,5.84
2018-01-30T10:36:14.982Z,5.90
2018-01-30T10:38:42.543Z,5.86
2018-01-30T10:41:10.214Z,5.83
2018-01-30T10:43:37.722Z,5.95
2018-01-30T10:46:05.297Z,5.97
2018-01-30T10:48:32.828Z,5.98
2018-01-30T10:51:00.358Z,6.03
2018-01-30T10:53:27.901Z,6.07
2018-01-30T10:55:55.442Z,6.13
2018-01-30T10:58:22.941Z,6.15
2018-01-30T11:00:51.151Z,6.13
2018-01-30T11:03:18.744Z,6.08
2018-01-30T11:05:46.396Z,6.07
2018-01-30T11:08:13.925Z,6.08
2018-01-30T11:10:41.460Z,6.10
2018-01-30T11:13:08.965Z,6.06
2018-01-30T11:15:36.811Z,5.98
2018-01-30T11:18:04.317Z,5.99
2018-01-30T11:20:31.816Z,6.08
2018-01-30T11:22:59.378Z,6.02
2018-01-30T11:25:26.901Z,6.02
2018-01-30T11:27:54.430Z,6.04
2018-01-30T11:30:21.988Z,6.04
2018-01-30T11:32:49.512Z,6.05
2018-01-30T11:35:17.015Z,6.11
2018-01-30T11:37:44.593Z,6.17
2018-01-30T11:40:12.101Z,6.10
2018-01-30T11:42:39.621Z,6.14
2018-01-30T11:45:07.206Z,6.16
2018-01-30T11:47:34.740Z,6.16
2018-01-30T11:50:02.357Z,6.20
2018-01-30T11:52:29.879Z,6.29
2018-01-30T11:54:57.405Z,6.27
2018-01-30T11:57:24.914Z,6.13
2018-01-30T11:59:52.497Z,6.14
2018-01-30T12:02:20.004Z,6.26
2018-01-30T12:04:47.497Z,6.28
2018-01-30T12:07:15.100Z,6.19
2018-01-30T12:09:42.621Z,6.20
2018-01-30T12:12:10.229Z,6.30
2018-01-30T12:14:37.792Z,6.40
2018-01-30T12:17:05.455Z,6.42
2018-01-30T12:19:32.988Z,6.48
2018-01-30T12:22:00.529Z,6.51
2018-01-30T12:24:28.059Z,6.53
2018-01-30T12:26:55.690Z,6.44
2018-01-30T12:29:23.212Z,6.42
2018-01-30T12:31:51.104Z,6.51
2018-01-30T12:34:18.653Z,6.53
2018-01-30T12:36:46.188Z,6.47
2018-01-30T12:39:13.816Z,6.52
2018-01-30T12:41:41.401Z,6.62
2018-01-30T12:44:08.912Z,6.65
2018-01-30T12:46:36.443Z,6.69
2018-01-30T12:49:04.031Z,6.64
2018-01-30T12:51:31.537Z,6.64
2018-01-30T12:53:59.065Z,6.59
2018-01-30T12:56:26.832Z,6.56
2018-01-30T12:58:54.332Z,6.61
2018-01-30T13:01:21.854Z,6.50
2018-01-30T13:03:49.384Z,6.39
2018-01-30T13:06:16.905Z,6.33
2018-01-30T13:08:44.448Z,6.31
2018-01-30T13:11:11.975Z,6.35
2018-01-30T13:13:39.473Z,6.34
2018-01-30T13:16:06.984Z,6.35
2018-01-30T13:18:34.485Z,6.42
2018-01-30T13:21:02.662Z,6.34
2018-01-30T13:23:30.193Z,6.31
2018-01-30T13:25:57.752Z,6.34
2018-01-30T13:28:25.276Z,6.43
2018-01-30T13:30:52.984Z,6.50
2018-01-30T13:33:20.513Z,6.47
2018-01-30T13:35:48.022Z,6.51
2018-01-30T13:38:15.586Z,6.52
2018-01-30T13:40:43.112Z,6.42
2018-01-30T13:43:10.629Z,6.36
2018-01-30T13:45:38.255Z,6.40
2018-01-30T13:48:05.810Z,6.44
2018-01-30T13:50:33.318Z,6.51
2018-01-30T13:53:00.935Z,6.57
2018-01-30T13:55:28.468Z,6.49
2018-01-30T13:57:56.073Z,6.41
2018-01-30T14:00:23.612Z,6.35
2018-01-30T14:02:51.117Z,6.32
2018-01-30T14:05:18.668Z,6.36
2018-01-30T14:07:46.283Z,6.42
2018-01-30T14:10:13.805Z,6.39
2018-01-30T14:12:41.346Z,6.33
2018-01-30T14:15:08.872Z,6.25
2018-01-30T14:17:36.396Z,6.27
2018-01-30T14:20:03.914Z,6.29
2018-01-30T14:22:31.442Z,6.24
2018-01-30T14:24:58.934Z,6.20
2018-01-30T14:27:26.465Z,6.23
2018-01-30T14:29:54.233Z,6.29
2018-01-30T14:32:21.729Z,6.31
2018-01-30T14:34:49.236Z,6.28
2018-01-30T14:37:16.765Z,6.20
2018-01-30T14:39:44.261Z,6.17
2018-01-30T14:42:11.764Z,6.20
2018-01-30T14:44:39.581Z,6.21
2018-01-30T14:47:07.080Z,6.17
2018-01-30T14:49:34.603Z,6.15
2018-01-30T14:52:02.129Z,6.23
2018-01-30T14:54:29.668Z,6.28
2018-01-30T14:56:57.189Z,6.23
2018-01-30T14:59:24.683Z,6.21
2018-01-30T15:01:52.192Z,6.23
2018-01-30T15:04:19.891Z,6.21
2018-01-30T15:06:47.389Z,6.15
2018-01-30T15:09:15.632Z,6.12
2018-01-30T15:11:43.180Z,6.18
2018-01-30T15:14:10.949Z,6.19
2018-01-30T15:16:38.445Z,6.10
2018-01-30T15:19:05.972Z,6.02
2018-01-30T15:21:33.552Z,6.00
2018-01-30T15:24:01.301Z,5.95
2018-01-30T15:26:28.803Z,5.90
2018-01-30T15:28:56.312Z,5.87
2018-01-30T15:31:23.860Z,5.85
2018-01-30T15:33:51.364Z,5.86
2018-01-30T15:36:18.890Z,5.87
2018-01-30T15:38:46.426Z,5.85
2018-01-30T15:41:13.977Z,5.82
2018-01-30T15:43:41.490Z,5.81
2018-01-30T15:46:09.147Z,5.80
2018-01-30T15:48:36.732Z,5.78
2018-01-30T15:51:04.261Z,5.76
2018-01-30T15:53:31.824Z,5.75
2018-01-30T15:55:59.332Z,5.73
2018-01-30T15:58:26.954Z,5.74
2018-01-30T16:00:54.508Z,5.76
2018-01-30T16:03:22.056Z,5.75
2018-01-30T16:05:49.553Z,5.77
2018-01-30T16:08:17.141Z,5.77
2018-01-30T16:10:44.644Z,5.74
2018-01-30T16:13:12.165Z,5.76
2018-01-30T16:15:39.706Z,5.72
2018-01-30T16:18:07.430Z,5.70
2018-01-30T16:20:34.988Z,5.67
2018-01-30T16:23:02.546Z,5.64
2018-01-30T16:25:30.130Z,5.56
2018-01-30T16:27:57.654Z,5.49
2018-01-30T16:30:25.145Z,5.43
2018-01-30T16:32:52.663Z,5.37
2018-01-30T16:35:20.201Z,5.37
2018-01-30T16:37:47.737Z,5.41
2018-01-30T16:40:15.285Z,5.41
2018-01-30T16:42:42.805Z,5.37
2018-01-30T16:45:10.345Z,5.31
2018-01-30T16:47:37.841Z,5.29
2018-01-30T16:50:05.345Z,5.23
2018-01-30T16:52:32.890Z,5.20
2018-01-30T16:55:00.459Z,5.16
2018-01-30T16:57:27.984Z,5.14
2018-01-30T16:59:55.516Z,5.09
2018-01-30T17:02:23.131Z,5.07
2018-01-30T17:04:50.685Z,5.05
2018-01-30T17:07:18.189Z,5.06
2018-01-30T17:09:45.721Z,5.03
2018-01-30T17:12:13.222Z,5.02
2018-01-30T17:14:40.930Z,5.02
2018-01-30T17:17:08.452Z,5.01
2018-01-30T17:19:36.004Z,5.02
2018-01-30T17:22:03.676Z,5.02
2018-01-30T17:24:31.225Z,5.00
2018-01-30T17:26:58.738Z,5.00
2018-01-30T17:29:26.289Z,5.01
2018-01-30T17:31:53.785Z,5.01
2018-01-30T17:34:21.313Z,4.99
2018-01-30T17:36:48.881Z,4.97
2018-01-30T17:39:16.433Z,4.93
2018-01-30T17:41:43.972Z,4.93
2018-01-30T17:44:11.487Z,4.92
2018-01-30T17:46:39.006Z,4.90
2018-01-30T17:49:06.568Z,4.91
2018-01-30T17:51:34.082Z,4.91
2018-01-30T17:54:01.628Z,4.90
2018-01-30T17:56:29.137Z,4.89
2018-01-30T17:58:56.670Z,5.01
2018-01-30T18:01:24.237Z,5.00
2018-01-30T18:03:51.765Z,4.93
2018-01-30T18:06:19.401Z,4.90
2018-01-30T18:08:46.901Z,4.86
2018-01-30T18:11:14.453Z,4.84
2018-01-30T18:13:42.071Z,4.83
2018-01-30T18:16:09.630Z,4.79
2018-01-30T18:18:37.134Z,4.79
2018-01-30T18:21:04.674Z,4.76
2018-01-30T18:23:32.177Z,4.71
2018-01-30T18:25:59.701Z,4.65
2018-01-30T18:28:27.213Z,4.63
2018-01-30T18:30:54.735Z,4.61
2018-01-30T18:33:22.261Z,4.59
2018-01-30T18:35:49.803Z,4.57
2018-01-30T18:38:17.363Z,4.55
2018-01-30T18:40:44.870Z,4.53
2018-01-30T18:43:12.379Z,4.48
2018-01-30T18:45:39.889Z,4.46
2018-01-30T18:48:07.521Z,4.45
2018-01-30T18:50:35.060Z,4.46
2018-01-30T18:53:03.668Z,4.43
2018-01-30T18:55:31.206Z,4.44
2018-01-30T18:57:58.736Z,4.43
2018-01-30T19:00:26.294Z,4.42
2018-01-30T19:02:53.802Z,4.40
2018-01-30T19:05:21.563Z,4.40
2018-01-30T19:07:49.084Z,4.38
2018-01-30T19:10:16.674Z,4.36
2018-01-30T19:12:44.205Z,4.35
2018-01-30T19:15:11.724Z,4.35
2018-01-30T19:17:39.309Z,4.34
2018-01-30T19:20:06.924Z,4.33
2018-01-30T19:22:34.424Z,4.30
2018-01-30T19:25:01.942Z,4.27
2018-01-30T19:27:29.487Z,4.25
2018-01-30T19:29:57.009Z,4.23
2018-01-30T19:32:24.518Z,4.24
2018-01-30T19:34:52.041Z,4.23
2018-01-30T19:37:19.857Z,4.20
2018-01-30T19:39:47.360Z,4.18
2018-01-30T19:42:14.946Z,4.18
2018-01-30T19:44:42.448Z,4.20
2018-01-30T19:47:10.180Z,4.22
2018-01-30T19:49:37.704Z,4.21
2018-01-30T19:52:05.234Z,4.19
2018-01-30T19:54:32.773Z,4.15
2018-01-30T19:57:00.404Z,4.15
2018-01-30T19:59:27.964Z,4.15
2018-01-30T20:01:55.507Z,4.12
2018-01-30T20:04:23.100Z,4.13
2018-01-30T20:06:50.600Z,4.15
2018-01-30T20:09:18.225Z,4.14
2018-01-30T20:11:45.761Z,4.14
2018-01-30T20:14:13.308Z,4.14
2018-01-30T20:16:40.881Z,4.12
2018-01-30T20:19:08.465Z,4.11
2018-01-30T20:21:35.992Z,4.09
2018-01-30T20:24:03.949Z,4.03
2018-01-30T20:26:37.108Z,4.01
2018-01-30T20:29:04.683Z,3.98
2018-01-30T20:31:32.325Z,3.99
2018-01-30T20:33:59.826Z,4.00
2018-01-30T20:36:27.349Z,4.02
2018-01-30T20:38:55.185Z,4.00
2018-01-30T20:41:22.681Z,3.98
2018-01-30T20:43:50.180Z,3.93
2018-01-30T20:46:17.723Z,3.93
2018-01-30T20:48:45.246Z,3.90
2018-01-30T20:51:12.758Z,3.88
2018-01-30T20:53:40.280Z,3.84
2018-01-30T20:56:07.902Z,3.79
2018-01-30T20:58:35.412Z,3.72
2018-01-30T21:01:02.949Z,3.68
2018-01-30T21:03:30.554Z,3.60
2018-01-30T21:05:58.049Z,3.57
2018-01-30T21:08:25.670Z,3.57
2018-01-30T21:10:53.196Z,3.56
2018-01-30T21:13:20.801Z,3.52
2018-01-30T21:15:48.356Z,3.50
2018-01-30T21:18:15.885Z,3.48
2018-01-30T21:20:43.408Z,3.44
2018-01-30T21:23:10.941Z,3.39
2018-01-30T21:25:38.432Z,3.38
2018-01-30T21:28:06.039Z,3.34
2018-01-30T21:30:33.538Z,3.30
2018-01-30T21:33:01.060Z,3.24
2018-01-30T21:35:28.601Z,3.18
2018-01-30T21:37:56.121Z,3.13
2018-01-30T21:40:23.628Z,3.17
2018-01-30T21:42:51.324Z,3.16
2018-01-30T21:45:18.837Z,3.12
2018-01-30T21:47:46.360Z,3.08
2018-01-30T21:50:13.916Z,3.03
2018-01-30T21:52:41.434Z,3.04
2018-01-30T21:55:08.994Z,3.02
2018-01-30T21:57:36.516Z,3.03
2018-01-30T22:00:04.115Z,3.00
2018-01-30T22:02:31.641Z,3.01
2018-01-30T22:04:59.165Z,3.00
2018-01-30T22:07:26.681Z,2.99
2018-01-30T22:09:54.255Z,3.00
2018-01-30T22:12:21.800Z,3.04
2018-01-30T22:14:49.410Z,3.04
2018-01-30T22:17:17.042Z,3.02
2018-01-30T22:19:44.612Z,3.01
2018-01-30T22:22:12.111Z,2.96
2018-01-30T22:24:39.684Z,2.97
2018-01-30T22:27:07.209Z,2.95
2018-01-30T22:29:34.705Z,2.92
2018-01-30T22:32:02.215Z,2.94
2018-01-30T22:34:29.841Z,2.96
2018-01-30T22:36:57.336Z,2.96
2018-01-30T22:39:24.879Z,2.95
2018-01-30T22:41:52.619Z,2.95
2018-01-30T22:44:29.938Z,2.94
2018-01-30T22:46:47.655Z,2.89
